Latest METARs, TAFs and NOTAMs for SKCL


---------------------------------------------------------------------------
	(OBSERVATIONS)
SKCL 222200Z 36007KT 9999 FEW040 BKN090 26/19 A2994=
SKCL 222100Z 03003KT 9999 VCSH FEW040 BKN090 26/21 A2994 RMK
    VCSH/SE/S=
SKCL 222000Z 27008KT 9000 VCSH SCT030CB BKN090 28/19 A2994 RMK
    CB/VCSH/NE/E/SE=
---------------------------------------------------------------------------
	(TERMINAL AREA FORECAST)
SKCL 221700Z 2218/2318 32008KT 9999 FEW020 SCT300 PROB30
    2220/2222 8000 VCSH
    SCT015TCU PROB30 2300/2302 9000 VCSH FEW015TCU TEMPO 2210/22013 8000
    SCT015
    TX32/2219Z TN20/2311Z=
---------------------------------------------------------------------------
	(NOTAMS)


SKCL A0248/15 FIRE FIGHTING AND RESCUE SERVICE CHG TO CAT 8.
    REMARKS: TOTAL CAPACITY OF DISCHARGE 14950 LT/MIN REF. AIP
    COLOMBIA SKCL AD 2.6. 02 FEB 21:00 2015 UNTIL PERM. CREATED:
    01 MAR 05:52 2015

SKCL A0417/15 MOV AREA NO VERTICAL SIGNALLING, EXER CTN. H24,
    18 FEB 22:55 2015 UNTIL 31 MAY 11:00 2015. CREATED: 18 FEB
    22:57 2015

SKCL A0933/15 FLIGHT PLAN PROCESSING AND FILING FPL LTD DUE TO
    FAILURE CLO FDP. 08 APR 16:50 2015 UNTIL 08 JUL 23:59 2015
    ESTIMATED. CREATED: 08 APR 16:54 2015

SKCL A0935/15 STAR RNAV (GNSS) ISAD1B, OREG1B RWY 19 NO AVBL
    REF. AIP SKCL STAR 9. H24, 08 APR 18:00 2015 UNTIL PERM.
    CREATED: 08 APR 18:07 2015

SKCL A0951/15 INTL APN LTD, RESTRICTED OPS ACFT GEN AVIATION
    DAYS TUE, THU Y SAT, GEN AVIATION WIL BE RELOCATED IN DESCONGESTION
    APN AND CARGO APN. NOTE: CREW MUST INFORM TO CECOA WHEN OVERNIGHT
    WILL BE PRETEND AND DEPARTURE DATE. 09 APR 20:00 2015 UNTIL
    31 JUL 23:59 2015. CREATED: 09 APR 16:54 2015

SKCL A0985/15 ACFT STAND NR 15,16 AUTH ENGINES START. 13 APR
    20:45 2015 UNTIL 30 JUN 23:59 2015. CREATED: 01 MAY 04:41
    2015

SKCL A1048/15 TWY C2 CLSD. 18 MAY 00:00 2015 UNTIL 01 JUN 23:59
    2015. CREATED: 01 MAY 04:41 2015

SKCL A1050/15 APRON, CARGO APRON AND DECONGESTION APRON WIP,
    EXER CTN. 19 APR 22:15 2015 UNTIL 31 JUL 23:59 2015. CREATED:
    01 MAY 04:42 2015

SKCL A1051/15 TWY A,B,C,C1,C2,D,E,F,G WIP, EXER CTN. H24, 19
    APR 22:30 2015 UNTIL 31 JUL 23:59 2015. CREATED: 19 APR 22:33
    2015

SKCL A1052/15 RWY 01/19 TURNING BAY LTD, ACFT PROHIBITED PARALLEL
    OR ONE SURPASSES THE OTHER ACFT, EXER CTN. 19 APR 22:40 2015
    UNTIL 31 JUL 23:59 2015. CREATED: 01 MAY 04:42 2015

SKCL A1232/15 SEQUENCED FLG LGT RWY 01 U/S. 04 MAY 16:50 2015
    UNTIL 04 AUG 23:59 2015 ESTIMATED. CREATED: 04 MAY 16:58
    2015

SKCL A1329/15 APRON NTL AND INTL WIP, EXER CTN. H24, 14 MAY 19:30
    2015 UNTIL 14 AUG 23:59 2015 ESTIMATED. CREATED: 14 MAY 19:33
    2015

SKCL A1330/15 ENG STARTING POINT NR 4 CLSD. H24, 14 MAY 19:35
    2015 UNTIL 14 AUG 23:59 2015 ESTIMATED. CREATED: 14 MAY 19:38
    2015

SKCL A1387/15 ACFT ENTERING TO ACFT STAND 4 MUST BE TOWED DUE
    TO APN WIP. H24, 20 MAY 21:08 2015 UNTIL 02 JUN 23:59 2015.
    CREATED: 20 MAY 21:10 2015

SKCL V0045/15 [DOD PROCEDURAL NOTAM] INSTRUMENT APPROACH PROCEDURE
    NOT AUTHORIZED: ILS RWY 01 AMDT 1, VOR RWY 19 ORIG, ANKIN
    5A, 5B, DEPARTURE, BUN 6A DEPARTURE, BUN 6C DEPARTURE NOT
    AUTHORIZED. 01 MAY 01:19 2015 UNTIL 25 JUN 23:59 2015. CREATED:
    01 MAY 01:21 2015

---------------------------------------------------------------------------